Time;durP1;ratioP1;P1;durP2;ratioP2;P2;SDS_P1;SDS_P2;PMS_P1;PMS_P2;Temp;Humidity;BMP_temperature;BMP_pressure;BME280_temperature;BME280_humidity;BME280_pressure;Samples;Min_cycle;Max_cycle;Signal;HPM_P1;HPM_P2
2021/03/24 00:01:30;;;;;;;14.95;6.97;;;;;;;;;;5093423;28;20453;-54
2021/03/24 00:03:56;;;;;;;16.23;6.88;;;;;;;;;;5093194;28;20096;-54
2021/03/24 00:06:22;;;;;;;15.27;6.47;;;;;;;;;;5096556;28;20361;-54
2021/03/24 00:08:48;;;;;;;14.10;6.85;;;;;;;;;;5096592;28;20115;-53
2021/03/24 00:11:14;;;;;;;16.15;6.57;;;;;;;;;;5095904;28;20093;-54
2021/03/24 00:13:41;;;;;;;12.40;6.40;;;;;;;;;;5096805;28;20059;-54
2021/03/24 00:16:07;;;;;;;16.63;7.50;;;;;;;;;;5096898;28;20469;-53
2021/03/24 00:18:33;;;;;;;14.88;6.85;;;;;;;;;;5096667;28;20354;-53
2021/03/24 00:21:00;;;;;;;18.80;7.10;;;;;;;;;;5096993;28;20050;-54
2021/03/24 00:23:26;;;;;;;20.00;7.70;;;;;;;;;;5096620;28;20373;-53
2021/03/24 00:25:52;;;;;;;14.50;6.15;;;;;;;;;;5096650;28;20529;-54
2021/03/24 00:28:18;;;;;;;19.52;7.75;;;;;;;;;;5096461;28;20039;-53
2021/03/24 00:30:45;;;;;;;19.67;6.82;;;;;;;;;;5096946;28;20020;-54
2021/03/24 00:33:12;;;;;;;18.02;6.45;;;;;;;;;;5096600;28;20350;-54
2021/03/24 00:35:38;;;;;;;16.92;7.28;;;;;;;;;;5096581;28;20016;-54
2021/03/24 00:38:04;;;;;;;13.95;6.50;;;;;;;;;;5096222;28;20024;-54
2021/03/24 00:40:32;;;;;;;16.85;8.23;;;;;;;;;;5096320;28;20032;-54
2021/03/24 00:42:59;;;;;;;15.88;7.22;;;;;;;;;;5096252;28;20028;-54
2021/03/24 00:45:25;;;;;;;13.82;7.07;;;;;;;;;;5096427;28;20137;-53
2021/03/24 00:47:51;;;;;;;17.73;7.78;;;;;;;;;;5096062;28;20046;-54
2021/03/24 00:50:19;;;;;;;15.88;7.22;;;;;;;;;;5096402;28;20032;-54
2021/03/24 00:52:45;;;;;;;17.60;7.80;;;;;;;;;;5096113;28;20028;-54
2021/03/24 00:55:12;;;;;;;17.77;7.93;;;;;;;;;;5095983;28;20070;-54
2021/03/24 00:57:38;;;;;;;25.05;8.63;;;;;;;;;;5096000;28;20067;-54
2021/03/24 01:00:08;;;;;;;14.70;7.07;;;;;;;;;;5096176;28;20028;-53
2021/03/24 01:02:34;;;;;;;21.38;8.27;;;;;;;;;;5094583;28;20366;-53
2021/03/24 01:05:02;;;;;;;15.48;7.95;;;;;;;;;;5096163;28;20020;-54
2021/03/24 01:07:28;;;;;;;19.50;7.82;;;;;;;;;;5095387;28;20499;-54
2021/03/24 01:09:54;;;;;;;21.83;8.73;;;;;;;;;;5096110;28;20044;-54
2021/03/24 01:12:20;;;;;;;20.67;7.72;;;;;;;;;;5095853;28;20027;-54
2021/03/24 01:14:46;;;;;;;14.10;6.90;;;;;;;;;;5095857;28;20473;-54
2021/03/24 01:17:12;;;;;;;21.35;7.57;;;;;;;;;;5095104;28;20035;-54
2021/03/24 01:19:38;;;;;;;15.63;7.28;;;;;;;;;;5095647;28;20043;-54
2021/03/24 01:22:04;;;;;;;25.02;7.82;;;;;;;;;;5095502;28;20349;-54
2021/03/24 01:24:30;;;;;;;17.98;7.72;;;;;;;;;;5095468;28;20105;-54
2021/03/24 01:26:56;;;;;;;19.70;8.27;;;;;;;;;;5095599;28;20024;-54
2021/03/24 01:29:22;;;;;;;17.75;7.45;;;;;;;;;;5095172;28;20396;-54
2021/03/24 01:31:48;;;;;;;16.80;8.30;;;;;;;;;;5095569;28;20028;-54
2021/03/24 01:34:14;;;;;;;18.42;8.45;;;;;;;;;;5095547;28;20089;-54
2021/03/24 01:36:40;;;;;;;16.35;7.15;;;;;;;;;;5095459;28;20457;-53
2021/03/24 01:39:07;;;;;;;18.75;6.97;;;;;;;;;;5094771;28;20081;-53
2021/03/24 01:41:33;;;;;;;26.70;8.48;;;;;;;;;;5095596;28;20020;-54
2021/03/24 01:43:59;;;;;;;19.90;8.13;;;;;;;;;;5095104;28;20086;-54
2021/03/24 01:46:28;;;;;;;19.95;7.88;;;;;;;;;;5095551;28;20291;-54
2021/03/24 01:48:58;;;;;;;14.73;7.68;;;;;;;;;;5094782;28;20032;-54
2021/03/24 01:51:26;;;;;;;21.40;8.88;;;;;;;;;;5094983;28;20287;-54
2021/03/24 01:53:54;;;;;;;19.20;8.60;;;;;;;;;;5095128;28;20060;-53
2021/03/24 01:56:20;;;;;;;19.00;8.32;;;;;;;;;;5095131;28;20020;-54
2021/03/24 01:58:47;;;;;;;16.13;7.63;;;;;;;;;;5094859;28;20027;-54
2021/03/24 02:01:15;;;;;;;21.90;8.07;;;;;;;;;;5095010;28;20237;-54
2021/03/24 02:03:41;;;;;;;19.85;8.07;;;;;;;;;;5094900;28;20024;-54
2021/03/24 02:06:15;;;;;;;15.85;8.00;;;;;;;;;;5094746;28;20117;-54
2021/03/24 02:08:43;;;;;;;18.58;8.43;;;;;;;;;;5094387;28;20028;-54
2021/03/24 02:11:18;;;;;;;20.48;8.52;;;;;;;;;;5094919;28;20023;-54
2021/03/24 02:13:44;;;;;;;19.80;7.80;;;;;;;;;;5094920;28;20319;-54
2021/03/24 02:16:17;;;;;;;26.38;8.38;;;;;;;;;;5094772;28;20020;-54
2021/03/24 02:18:44;;;;;;;19.00;7.85;;;;;;;;;;5094127;28;20085;-53
2021/03/24 02:21:22;;;;;;;15.82;7.78;;;;;;;;;;5094846;28;20034;-54
2021/03/24 02:24:12;;;;;;;20.33;8.05;;;;;;;;;;5092820;28;20408;-54
2021/03/24 02:26:38;;;;;;;21.88;7.82;;;;;;;;;;5091279;28;20424;-54
2021/03/24 02:29:05;;;;;;;17.05;8.27;;;;;;;;;;5093078;28;20075;-54
2021/03/24 02:31:33;;;;;;;21.60;9.25;;;;;;;;;;5094675;28;20016;-54
2021/03/24 02:34:02;;;;;;;34.65;8.48;;;;;;;;;;5094191;28;20461;-53
2021/03/24 02:36:28;;;;;;;22.27;8.05;;;;;;;;;;5094462;28;20031;-53
2021/03/24 02:38:56;;;;;;;19.20;8.50;;;;;;;;;;5093855;28;20024;-54
2021/03/24 02:41:22;;;;;;;16.10;7.82;;;;;;;;;;5093681;28;20026;-54
2021/03/24 02:43:48;;;;;;;18.83;8.05;;;;;;;;;;5093845;28;20416;-54
2021/03/24 02:46:16;;;;;;;16.25;7.95;;;;;;;;;;5094289;28;20023;-54
2021/03/24 02:48:42;;;;;;;15.27;8.13;;;;;;;;;;5093673;28;20028;-54
2021/03/24 02:51:11;;;;;;;19.42;7.05;;;;;;;;;;5094107;28;20054;-54
2021/03/24 02:53:39;;;;;;;16.27;7.68;;;;;;;;;;5093801;28;20016;-54
2021/03/24 02:56:06;;;;;;;21.13;8.02;;;;;;;;;;5093739;28;20326;-54
2021/03/24 02:58:32;;;;;;;18.90;7.75;;;;;;;;;;5093897;28;20399;-55
2021/03/24 03:00:59;;;;;;;21.48;8.40;;;;;;;;;;5093790;28;20024;-54
2021/03/24 03:03:37;;;;;;;17.35;7.93;;;;;;;;;;5093980;28;20102;-54
2021/03/24 03:06:04;;;;;;;20.63;8.73;;;;;;;;;;5094243;28;20173;-54
2021/03/24 03:08:33;;;;;;;18.27;7.85;;;;;;;;;;5093118;28;20043;-54
2021/03/24 03:11:04;;;;;;;13.98;7.28;;;;;;;;;;5093458;28;20477;-55
2021/03/24 03:13:48;;;;;;;16.58;7.85;;;;;;;;;;5093864;28;20100;-54
2021/03/24 03:16:32;;;;;;;17.63;8.07;;;;;;;;;;5093719;28;20039;-55
2021/03/24 03:19:34;;;;;;;18.10;8.13;;;;;;;;;;5092852;28;20120;-55
2021/03/24 03:22:08;;;;;;;17.58;7.35;;;;;;;;;;5054082;28;20458;-54
2021/03/24 03:24:47;;;;;;;16.83;7.90;;;;;;;;;;5070779;28;20032;-54
2021/03/24 03:27:14;;;;;;;17.50;8.55;;;;;;;;;;5064550;28;20032;-54
2021/03/24 03:29:42;;;;;;;19.10;8.05;;;;;;;;;;5070762;28;20042;-54
2021/03/24 03:32:08;;;;;;;19.63;8.55;;;;;;;;;;5070786;28;20449;-55
2021/03/24 03:34:35;;;;;;;18.60;7.47;;;;;;;;;;5070511;28;20033;-55
2021/03/24 03:37:02;;;;;;;21.95;8.20;;;;;;;;;;5070196;28;20052;-55
2021/03/24 03:39:29;;;;;;;16.23;6.75;;;;;;;;;;5070429;28;20032;-55
2021/03/24 03:41:57;;;;;;;14.93;6.78;;;;;;;;;;5070107;28;20107;-55
2021/03/24 03:44:24;;;;;;;18.65;7.00;;;;;;;;;;5060335;28;20105;-55
2021/03/24 03:46:52;;;;;;;18.17;7.18;;;;;;;;;;5050546;28;20029;-55
2021/03/24 03:49:19;;;;;;;21.38;8.02;;;;;;;;;;5050129;28;20045;-55
2021/03/24 03:51:44;;;;;;;13.63;7.20;;;;;;;;;;5050437;28;20022;-55
2021/03/24 03:54:12;;;;;;;18.15;8.25;;;;;;;;;;5050403;28;20029;-54
2021/03/24 03:56:59;;;;;;;16.45;8.27;;;;;;;;;;5078528;28;20488;-54
2021/03/24 03:59:31;;;;;;;17.00;7.93;;;;;;;;;;5073555;28;20382;-55
2021/03/24 04:01:59;;;;;;;17.27;6.72;;;;;;;;;;5092627;28;20028;-54
2021/03/24 04:04:42;;;;;;;18.88;7.78;;;;;;;;;;5092895;28;20032;-54
2021/03/24 04:07:19;;;;;;;19.25;8.55;;;;;;;;;;5092445;28;20032;-55
2021/03/24 04:09:46;;;;;;;19.55;8.32;;;;;;;;;;5092844;28;20063;-54
2021/03/24 04:12:14;;;;;;;17.80;8.60;;;;;;;;;;5093212;28;20024;-55
2021/03/24 04:14:40;;;;;;;15.65;7.90;;;;;;;;;;5093193;28;20099;-55
2021/03/24 04:17:08;;;;;;;18.42;7.50;;;;;;;;;;5092657;28;20028;-55
2021/03/24 04:19:37;;;;;;;20.23;8.00;;;;;;;;;;5112001;28;20023;-55
2021/03/24 04:22:03;;;;;;;21.40;8.35;;;;;;;;;;5113294;28;20064;-54
2021/03/24 04:24:31;;;;;;;20.55;8.23;;;;;;;;;;5113312;28;20143;-55
2021/03/24 04:26:58;;;;;;;20.75;8.48;;;;;;;;;;5113046;28;20020;-54
2021/03/24 04:29:27;;;;;;;19.85;8.27;;;;;;;;;;5112980;28;20478;-55
2021/03/24 04:31:55;;;;;;;19.60;7.90;;;;;;;;;;5113140;28;20015;-54
2021/03/24 04:34:21;;;;;;;16.33;8.15;;;;;;;;;;5113505;28;20031;-54
2021/03/24 04:36:59;;;;;;;18.17;7.53;;;;;;;;;;5105064;28;20043;-55
2021/03/24 04:39:35;;;;;;;20.88;8.27;;;;;;;;;;5112405;28;20059;-54
2021/03/24 04:42:03;;;;;;;16.75;7.88;;;;;;;;;;5113163;28;20358;-55
2021/03/24 04:44:30;;;;;;;21.25;7.95;;;;;;;;;;5112804;28;20027;-54
2021/03/24 04:47:01;;;;;;;23.30;8.02;;;;;;;;;;5113136;28;20028;-55
2021/03/24 04:49:28;;;;;;;15.27;6.60;;;;;;;;;;5112871;28;20143;-55
2021/03/24 04:51:55;;;;;;;20.17;7.65;;;;;;;;;;5114128;28;20407;-55
2021/03/24 04:54:31;;;;;;;17.38;7.63;;;;;;;;;;5111820;28;20024;-54
2021/03/24 04:57:03;;;;;;;17.77;8.00;;;;;;;;;;5096398;28;20118;-54
2021/03/24 04:59:33;;;;;;;17.20;8.02;;;;;;;;;;5095961;28;20353;-55
2021/03/24 05:02:01;;;;;;;21.23;9.07;;;;;;;;;;5095951;28;20055;-54
2021/03/24 05:04:33;;;;;;;21.17;7.88;;;;;;;;;;5094642;28;20028;-55
2021/03/24 05:07:18;;;;;;;24.95;8.55;;;;;;;;;;5095672;28;20024;-54
2021/03/24 05:09:45;;;;;;;16.52;7.35;;;;;;;;;;5095921;28;20040;-54
2021/03/24 05:12:14;;;;;;;19.92;9.25;;;;;;;;;;5096141;28;20081;-54
2021/03/24 05:14:46;;;;;;;19.02;7.80;;;;;;;;;;5095769;28;20357;-55
2021/03/24 05:17:29;;;;;;;19.00;7.90;;;;;;;;;;5095642;28;20020;-54
2021/03/24 05:20:09;;;;;;;21.98;8.48;;;;;;;;;;5095304;28;20031;-55
2021/03/24 05:22:43;;;;;;;23.83;9.55;;;;;;;;;;5095444;28;20024;-55
2021/03/24 05:25:22;;;;;;;19.80;8.00;;;;;;;;;;5095712;28;20020;-54
2021/03/24 05:27:58;;;;;;;19.98;8.25;;;;;;;;;;5095245;28;20476;-55
2021/03/24 05:30:29;;;;;;;16.45;8.20;;;;;;;;;;5095154;28;20024;-54
2021/03/24 05:33:06;;;;;;;22.17;8.73;;;;;;;;;;5094843;28;20031;-54
2021/03/24 05:35:35;;;;;;;20.95;8.13;;;;;;;;;;5095512;28;20197;-54
2021/03/24 05:38:02;;;;;;;19.73;8.50;;;;;;;;;;5095040;28;20103;-54
2021/03/24 05:40:35;;;;;;;15.02;7.80;;;;;;;;;;5095324;28;20024;-54
2021/03/24 05:43:09;;;;;;;16.77;7.35;;;;;;;;;;5094863;28;20043;-54
2021/03/24 05:45:47;;;;;;;18.42;8.23;;;;;;;;;;5095421;28;20069;-54
2021/03/24 05:48:32;;;;;;;26.75;9.43;;;;;;;;;;5094792;28;20077;-54
2021/03/24 05:51:06;;;;;;;21.77;9.07;;;;;;;;;;5095070;28;20032;-54
2021/03/24 05:53:45;;;;;;;20.83;9.02;;;;;;;;;;5095369;28;20020;-54
2021/03/24 05:56:22;;;;;;;18.92;8.55;;;;;;;;;;5095078;28;20028;-54
2021/03/24 05:58:48;;;;;;;20.50;8.02;;;;;;;;;;5094663;28;20081;-54
2021/03/24 06:01:28;;;;;;;24.73;7.95;;;;;;;;;;5104665;28;20032;-54
2021/03/24 06:04:00;;;;;;;13.30;7.55;;;;;;;;;;5101061;28;20491;-54
2021/03/24 06:06:45;;;;;;;22.83;8.50;;;;;;;;;;5102310;28;20024;-55
2021/03/24 06:09:30;;;;;;;17.98;9.73;;;;;;;;;;5102812;28;20052;-54
2021/03/24 06:12:11;;;;;;;15.80;7.90;;;;;;;;;;5097183;28;20095;-55
2021/03/24 06:14:55;;;;;;;15.07;6.85;;;;;;;;;;5105732;28;20011;-55
2021/03/24 06:17:31;;;;;;;19.60;8.50;;;;;;;;;;5096558;28;20032;-54
2021/03/24 06:20:16;;;;;;;19.75;7.28;;;;;;;;;;5094541;28;20024;-55
2021/03/24 06:22:42;;;;;;;16.67;7.97;;;;;;;;;;5093015;28;20146;-55
2021/03/24 06:25:11;;;;;;;18.20;7.53;;;;;;;;;;5094425;28;20410;-55
2021/03/24 06:27:46;;;;;;;16.95;7.65;;;;;;;;;;5094005;28;20488;-54
2021/03/24 06:30:15;;;;;;;15.63;7.38;;;;;;;;;;5094442;28;20036;-55
2021/03/24 06:33:00;;;;;;;20.90;8.48;;;;;;;;;;5093980;28;20036;-54
2021/03/24 06:35:29;;;;;;;19.17;7.70;;;;;;;;;;5103006;28;20019;-54
2021/03/24 06:37:58;;;;;;;19.95;8.10;;;;;;;;;;5094378;28;20066;-55
2021/03/24 06:40:42;;;;;;;16.48;7.25;;;;;;;;;;5094191;28;20462;-55
2021/03/24 06:43:28;;;;;;;22.60;8.45;;;;;;;;;;5093486;28;20032;-54
2021/03/24 06:46:00;;;;;;;21.40;7.97;;;;;;;;;;5102676;28;20028;-54
2021/03/24 06:48:36;;;;;;;17.58;8.38;;;;;;;;;;5109352;28;20031;-54
2021/03/24 06:51:07;;;;;;;24.17;9.73;;;;;;;;;;5106328;28;20022;-55
2021/03/24 06:53:33;;;;;;;20.00;8.50;;;;;;;;;;5106965;28;20023;-54
2021/03/24 06:56:18;;;;;;;23.92;10.18;;;;;;;;;;5100757;28;20040;-55
2021/03/24 06:58:50;;;;;;;18.60;8.20;;;;;;;;;;5094876;28;20111;-55
2021/03/24 07:01:22;;;;;;;24.02;10.60;;;;;;;;;;5105266;28;20517;-54
2021/03/24 07:03:54;;;;;;;27.80;10.30;;;;;;;;;;5105614;28;20145;-54
2021/03/24 07:06:20;;;;;;;23.60;8.00;;;;;;;;;;5113706;27;20453;-54
2021/03/24 07:09:05;;;;;;;16.55;7.90;;;;;;;;;;5113987;28;20087;-54
2021/03/24 07:11:51;;;;;;;25.10;9.23;;;;;;;;;;5113936;28;20019;-54
2021/03/24 07:14:35;;;;;;;22.25;8.82;;;;;;;;;;5092295;28;20039;-54
2021/03/24 07:17:16;;;;;;;19.70;8.75;;;;;;;;;;5113439;28;20441;-54
2021/03/24 07:20:01;;;;;;;24.73;10.13;;;;;;;;;;5093730;28;20028;-54
2021/03/24 07:22:39;;;;;;;28.80;11.23;;;;;;;;;;5093301;28;20090;-54
2021/03/24 07:25:14;;;;;;;25.67;11.60;;;;;;;;;;5093105;28;20107;-54
2021/03/24 07:28:00;;;;;;;18.52;9.35;;;;;;;;;;5093071;28;20028;-54
2021/03/24 07:30:32;;;;;;;34.78;12.63;;;;;;;;;;5093629;28;20024;-54
2021/03/24 07:33:03;;;;;;;24.45;11.32;;;;;;;;;;5093218;28;20024;-55
2021/03/24 07:35:53;;;;;;;27.05;10.30;;;;;;;;;;5093054;28;20024;-54
2021/03/24 07:38:19;;;;;;;;;;;;;;;;;;5093550;28;20024;-54
2021/03/24 07:40:54;;;;;;;33.85;13.48;;;;;;;;;;5093240;28;19904;-54
2021/03/24 07:43:38;;;;;;;26.38;10.57;;;;;;;;;;5092985;28;20043;-55
2021/03/24 07:46:04;;;;;;;31.88;11.68;;;;;;;;;;5093647;28;20020;-55
2021/03/24 07:48:30;;;;;;;26.02;10.93;;;;;;;;;;5092687;28;20047;-54
2021/03/24 07:50:59;;;;;;;30.08;13.18;;;;;;;;;;5093038;28;20076;-54
2021/03/24 07:53:31;;;;;;;31.27;10.73;;;;;;;;;;5093056;28;20369;-54
2021/03/24 07:56:09;;;;;;;33.72;12.65;;;;;;;;;;5093177;28;20102;-55
2021/03/24 07:58:54;;;;;;;29.80;11.00;;;;;;;;;;5102698;28;20047;-54
2021/03/24 08:01:29;;;;;;;35.67;13.80;;;;;;;;;;5094570;28;20016;-54
2021/03/24 08:03:55;;;;;;;38.42;15.30;;;;;;;;;;5093128;28;20028;-54
2021/03/24 08:06:28;;;;;;;39.92;15.48;;;;;;;;;;5110558;28;20024;-54
2021/03/24 08:09:00;;;;;;;43.58;16.20;;;;;;;;;;5108111;28;20361;-54
2021/03/24 08:11:42;;;;;;;49.13;17.25;;;;;;;;;;5093065;28;20029;-54
2021/03/24 08:14:34;;;;;;;32.08;11.27;;;;;;;;;;5093020;28;20111;-54
2021/03/24 08:17:14;;;;;;;35.88;12.85;;;;;;;;;;5090114;28;20429;-54
2021/03/24 08:19:46;;;;;;;24.73;9.73;;;;;;;;;;5091468;28;20021;-53
2021/03/24 08:22:20;;;;;;;20.95;8.32;;;;;;;;;;5092740;28;20042;-54
2021/03/24 08:25:05;;;;;;;39.47;14.77;;;;;;;;;;5099100;28;20027;-54
2021/03/24 08:27:38;;;;;;;42.83;17.83;;;;;;;;;;5104253;28;20048;-54
2021/03/24 08:30:04;;;;;;;48.25;18.35;;;;;;;;;;5103069;28;20123;-54
2021/03/24 08:32:33;;;;;;;52.50;21.05;;;;;;;;;;5096769;28;20073;-54
2021/03/24 08:35:18;;;;;;;57.88;22.10;;;;;;;;;;5100264;28;20027;-54
2021/03/24 08:37:51;;;;;;;25.00;9.52;;;;;;;;;;5100619;28;20032;-54
2021/03/24 08:40:36;;;;;;;31.52;12.65;;;;;;;;;;5101885;28;20404;-54
2021/03/24 08:43:08;;;;;;;55.72;21.02;;;;;;;;;;5096389;28;20032;-54
2021/03/24 08:45:53;;;;;;;52.88;21.70;;;;;;;;;;5096543;28;20030;-53
2021/03/24 08:48:37;;;;;;;45.42;14.55;;;;;;;;;;5113710;28;20057;-54
2021/03/24 08:51:24;;;;;;;47.95;19.30;;;;;;;;;;5096306;28;20036;-54
2021/03/24 08:53:59;;;;;;;93.45;31.33;;;;;;;;;;5084967;28;20596;-54
2021/03/24 08:56:34;;;;;;;56.65;22.05;;;;;;;;;;5115642;28;20028;-54
2021/03/24 08:59:17;;;;;;;96.13;32.58;;;;;;;;;;5113121;28;20043;-54
2021/03/24 09:01:46;;;;;;;51.47;18.83;;;;;;;;;;5106169;28;20039;-54
2021/03/24 09:04:12;;;;;;;64.85;19.88;;;;;;;;;;5104748;28;20020;-54
2021/03/24 09:06:47;;;;;;;121.72;35.58;;;;;;;;;;5106912;28;20019;-54
2021/03/24 09:09:13;;;;;;;126.10;34.88;;;;;;;;;;5102903;28;20067;-54
2021/03/24 09:11:48;;;;;;;146.35;33.85;;;;;;;;;;5106116;28;20047;-54
2021/03/24 09:14:14;;;;;;;73.70;25.15;;;;;;;;;;5103463;28;20111;-54
2021/03/24 09:16:47;;;;;;;21.95;8.20;;;;;;;;;;5114867;28;20647;-54
2021/03/24 09:19:31;;;;;;;24.42;9.50;;;;;;;;;;5098790;27;20023;-54
2021/03/24 09:22:09;;;;;;;45.53;14.35;;;;;;;;;;5095771;28;20028;-54
2021/03/24 09:24:38;;;;;;;74.35;28.98;;;;;;;;;;5100620;28;20357;-54
2021/03/24 09:27:23;;;;;;;117.45;35.22;;;;;;;;;;5103932;28;20476;-53
2021/03/24 09:29:55;;;;;;;63.75;23.15;;;;;;;;;;5104042;28;20358;-54
2021/03/24 09:32:37;;;;;;;79.80;25.45;;;;;;;;;;5103047;28;20116;-54
2021/03/24 09:35:03;;;;;;;82.60;20.85;;;;;;;;;;5099204;28;20030;-54
2021/03/24 09:37:37;;;;;;;27.02;11.27;;;;;;;;;;5102804;28;20032;-54
2021/03/24 09:40:09;;;;;;;1.92;1.80;;;;;;;;;;5103616;28;20032;-53
2021/03/24 09:42:41;;;;;;;31.88;12.55;;;;;;;;;;5113465;28;20036;-54
2021/03/24 09:45:16;;;;;;;22.90;10.88;;;;;;;;;;5114540;28;20031;-54
2021/03/24 09:48:01;;;;;;;31.95;12.77;;;;;;;;;;5103426;28;20069;-54
2021/03/24 09:50:39;;;;;;;16.10;8.32;;;;;;;;;;5105498;28;20323;-54
2021/03/24 09:53:17;;;;;;;37.83;15.75;;;;;;;;;;5105339;28;20517;-54
2021/03/24 09:55:47;;;;;;;37.60;16.40;;;;;;;;;;5101845;28;20020;-54
2021/03/24 09:58:21;;;;;;;52.95;20.35;;;;;;;;;;5104231;28;20093;-54
2021/03/24 10:01:06;;;;;;;34.58;14.18;;;;;;;;;;5103809;28;20167;-54
2021/03/24 10:03:35;;;;;;;29.58;9.73;;;;;;;;;;5094654;28;20026;-54
2021/03/24 10:06:03;;;;;;;32.33;15.30;;;;;;;;;;5107849;28;20461;-54
2021/03/24 10:08:34;;;;;;;31.02;13.95;;;;;;;;;;5110097;28;20081;-54
2021/03/24 10:11:06;;;;;;;29.45;11.55;;;;;;;;;;5115070;28;20540;-54
2021/03/24 10:13:36;;;;;;;38.63;11.73;;;;;;;;;;5113111;28;20024;-54
2021/03/24 10:16:10;;;;;;;21.58;10.55;;;;;;;;;;5104939;28;20338;-54
2021/03/24 10:18:38;;;;;;;31.33;13.88;;;;;;;;;;5102815;28;20028;-54
2021/03/24 10:21:11;;;;;;;33.90;14.18;;;;;;;;;;5103093;28;20023;-54
2021/03/24 10:23:58;;;;;;;35.50;13.30;;;;;;;;;;5099570;28;20043;-54
2021/03/24 10:26:30;;;;;;;31.42;13.30;;;;;;;;;;5094263;28;20059;-54
2021/03/24 10:29:01;;;;;;;29.40;11.73;;;;;;;;;;5103528;28;20042;-54
2021/03/24 10:31:30;;;;;;;7.03;4.40;;;;;;;;;;5109969;28;20066;-54
2021/03/24 10:33:59;;;;;;;13.40;6.67;;;;;;;;;;5114906;28;20402;-54
2021/03/24 10:36:29;;;;;;;34.13;12.02;;;;;;;;;;5114164;28;20023;-54
2021/03/24 10:38:55;;;;;;;;;;;;;;;;;;5104401;28;20023;-54
2021/03/24 10:41:42;;;;;;;20.90;7.78;;;;;;;;;;5100847;28;19907;-54
2021/03/24 10:44:16;;;;;;;18.00;8.30;;;;;;;;;;5114213;28;20086;-54
2021/03/24 10:47:04;;;;;;;12.02;5.00;;;;;;;;;;5093947;28;20028;-54
2021/03/24 10:49:48;;;;;;;21.20;7.10;;;;;;;;;;5093425;28;20077;-54
2021/03/24 10:52:19;;;;;;;9.25;3.97;;;;;;;;;;5094906;28;20096;-54
2021/03/24 10:54:46;;;;;;;9.65;4.78;;;;;;;;;;5103136;28;20023;-54
2021/03/24 10:57:15;;;;;;;21.75;8.50;;;;;;;;;;5102469;28;20018;-54
2021/03/24 10:59:44;;;;;;;25.00;10.13;;;;;;;;;;5103769;28;20202;-54
2021/03/24 11:02:18;;;;;;;26.07;9.40;;;;;;;;;;5103624;28;20098;-54
2021/03/24 11:04:51;;;;;;;7.55;4.43;;;;;;;;;;5103541;28;20059;-54
2021/03/24 11:07:26;;;;;;;19.25;7.97;;;;;;;;;;5100937;28;20056;-54
2021/03/24 11:09:55;;;;;;;13.70;5.47;;;;;;;;;;5102670;28;20056;-54
2021/03/24 11:12:24;;;;;;;9.73;3.50;;;;;;;;;;5102316;28;20016;-54
2021/03/24 11:15:02;;;;;;;11.23;5.18;;;;;;;;;;5104744;28;20106;-54
2021/03/24 11:17:31;;;;;;;12.45;4.93;;;;;;;;;;5103765;28;20066;-54
2021/03/24 11:20:20;;;;;;;4.85;2.67;;;;;;;;;;5103694;28;20027;-54
2021/03/24 11:22:51;;;;;;;12.45;4.55;;;;;;;;;;5102863;28;20340;-54
2021/03/24 11:25:21;;;;;;;15.45;6.70;;;;;;;;;;5100117;28;20024;-54
2021/03/24 11:27:51;;;;;;;9.02;3.78;;;;;;;;;;5103142;28;20028;-54
2021/03/24 11:30:19;;;;;;;14.73;4.72;;;;;;;;;;5102745;28;20033;-54
2021/03/24 11:33:04;;;;;;;4.50;1.90;;;;;;;;;;5101653;28;20016;-54
2021/03/24 11:35:39;;;;;;;14.10;6.43;;;;;;;;;;5103907;28;20403;-54
2021/03/24 11:38:14;;;;;;;23.27;8.10;;;;;;;;;;5109583;28;20016;-54
2021/03/24 11:40:44;;;;;;;9.50;4.32;;;;;;;;;;5102308;28;20348;-54
2021/03/24 11:43:21;;;;;;;15.93;6.80;;;;;;;;;;5101456;28;20024;-54
2021/03/24 11:45:47;;;;;;;15.65;7.43;;;;;;;;;;5102783;28;20031;-54
2021/03/24 11:48:38;;;;;;;15.18;5.82;;;;;;;;;;5112535;28;20388;-54
2021/03/24 11:51:26;;;;;;;10.57;5.20;;;;;;;;;;5113260;28;20035;-54
2021/03/24 11:54:11;;;;;;;12.35;2.70;;;;;;;;;;5107874;28;20134;-54
2021/03/24 11:56:56;;;;;;;13.15;5.82;;;;;;;;;;5100840;28;20031;-54
2021/03/24 11:59:40;;;;;;;17.20;5.18;;;;;;;;;;5103082;28;20062;-54
2021/03/24 12:02:19;;;;;;;10.27;5.07;;;;;;;;;;5107248;28;20407;-54
2021/03/24 12:05:04;;;;;;;10.25;4.43;;;;;;;;;;5105373;28;20338;-54
2021/03/24 12:07:30;;;;;;;2.75;2.15;;;;;;;;;;5100149;28;20035;-54
2021/03/24 12:10:16;;;;;;;13.00;6.10;;;;;;;;;;5099829;28;20032;-54
2021/03/24 12:12:43;;;;;;;18.92;7.82;;;;;;;;;;5096576;28;20035;-54
2021/03/24 12:15:21;;;;;;;5.07;2.05;;;;;;;;;;5106727;28;20075;-54
2021/03/24 12:17:47;;;;;;;3.88;2.13;;;;;;;;;;5099933;27;20087;-54
2021/03/24 12:20:13;;;;;;;11.07;4.95;;;;;;;;;;5096668;28;20465;-53
2021/03/24 12:22:40;;;;;;;8.38;3.75;;;;;;;;;;5096673;28;20024;-54
2021/03/24 12:25:09;;;;;;;0.95;0.82;;;;;;;;;;5104461;28;20032;-54
2021/03/24 12:27:40;;;;;;;13.75;5.68;;;;;;;;;;5107013;28;20031;-54
2021/03/24 12:30:08;;;;;;;14.00;5.45;;;;;;;;;;5107046;28;20099;-54
2021/03/24 12:32:38;;;;;;;11.10;4.82;;;;;;;;;;5105056;27;20016;-54
2021/03/24 12:35:05;;;;;;;7.68;3.80;;;;;;;;;;5106379;28;20091;-54
2021/03/24 12:37:36;;;;;;;6.80;2.45;;;;;;;;;;5104699;28;20035;-54
2021/03/24 12:40:10;;;;;;;14.32;5.80;;;;;;;;;;5106047;28;20107;-54
2021/03/24 12:42:37;;;;;;;15.00;7.13;;;;;;;;;;5105063;28;20031;-54
2021/03/24 12:45:23;;;;;;;6.38;2.95;;;;;;;;;;5106366;28;20011;-54
2021/03/24 12:47:50;;;;;;;6.75;3.15;;;;;;;;;;5104221;28;20034;-54
2021/03/24 12:50:22;;;;;;;12.30;4.97;;;;;;;;;;5107031;28;20484;-54
2021/03/24 12:52:48;;;;;;;12.68;5.57;;;;;;;;;;5106733;28;20028;-54
2021/03/24 12:55:16;;;;;;;3.13;1.85;;;;;;;;;;5105947;28;20086;-54
2021/03/24 12:57:45;;;;;;;6.95;3.20;;;;;;;;;;5103901;28;20254;-54
2021/03/24 13:00:33;;;;;;;7.03;1.57;;;;;;;;;;5100112;28;20037;-54
2021/03/24 13:03:15;;;;;;;15.63;6.35;;;;;;;;;;5108388;28;20259;-54
2021/03/24 13:06:04;;;;;;;17.67;6.50;;;;;;;;;;5099009;28;20024;-54
2021/03/24 13:08:36;;;;;;;6.22;3.15;;;;;;;;;;5093025;28;20050;-54
2021/03/24 13:11:11;;;;;;;13.32;6.35;;;;;;;;;;5097756;28;20713;-54
2021/03/24 13:13:44;;;;;;;17.05;6.47;;;;;;;;;;5095215;28;20032;-54
2021/03/24 13:16:31;;;;;;;21.02;3.97;;;;;;;;;;5095936;28;20031;-53
2021/03/24 13:19:09;;;;;;;8.52;3.45;;;;;;;;;;5094740;28;20063;-53
2021/03/24 13:21:54;;;;;;;16.90;4.95;;;;;;;;;;5096605;28;20099;-53
2021/03/24 13:24:39;;;;;;;5.78;2.88;;;;;;;;;;5095285;28;20346;-53
2021/03/24 13:27:20;;;;;;;8.45;4.75;;;;;;;;;;5094943;28;20441;-53
2021/03/24 13:29:52;;;;;;;11.52;5.03;;;;;;;;;;5095476;28;20043;-53
2021/03/24 13:32:37;;;;;;;11.13;5.50;;;;;;;;;;5097960;28;20028;-53
2021/03/24 13:35:09;;;;;;;11.70;4.85;;;;;;;;;;5095306;28;20466;-53
2021/03/24 13:37:35;;;;;;;14.80;5.85;;;;;;;;;;5095028;28;20031;-54
2021/03/24 13:40:19;;;;;;;8.60;3.75;;;;;;;;;;5094765;28;20114;-53
2021/03/24 13:42:51;;;;;;;9.82;4.57;;;;;;;;;;5110039;28;20039;-53
2021/03/24 13:45:26;;;;;;;11.35;5.03;;;;;;;;;;5115168;28;20027;-53
2021/03/24 13:48:11;;;;;;;9.23;5.05;;;;;;;;;;5115103;28;20027;-53
2021/03/24 13:50:40;;;;;;;6.18;3.20;;;;;;;;;;5114977;28;20031;-53
2021/03/24 13:53:10;;;;;;;13.23;4.53;;;;;;;;;;5101468;28;20032;-53
2021/03/24 13:55:54;;;;;;;13.23;6.90;;;;;;;;;;5110424;28;20032;-53
2021/03/24 13:58:20;;;;;;;5.78;2.70;;;;;;;;;;5104002;28;20361;-54
2021/03/24 14:00:56;;;;;;;13.63;5.88;;;;;;;;;;5094521;28;20028;-53
2021/03/24 14:03:35;;;;;;;11.02;5.50;;;;;;;;;;5098888;28;20023;-53
2021/03/24 14:06:08;;;;;;;8.48;4.53;;;;;;;;;;5102203;28;20024;-53
2021/03/24 14:08:43;;;;;;;12.13;4.90;;;;;;;;;;5096077;28;20030;-53
2021/03/24 14:11:35;;;;;;;8.95;3.42;;;;;;;;;;5110250;28;20441;-53
2021/03/24 14:14:01;;;;;;;8.48;3.28;;;;;;;;;;5090889;28;20137;-53
2021/03/24 14:16:39;;;;;;;8.25;1.95;;;;;;;;;;5108616;28;20044;-53
2021/03/24 14:19:11;;;;;;;12.07;5.50;;;;;;;;;;5097165;28;20054;-53
2021/03/24 14:21:48;;;;;;;9.98;4.38;;;;;;;;;;5107351;28;20430;-53
2021/03/24 14:24:20;;;;;;;14.25;3.33;;;;;;;;;;5104169;28;20024;-53
2021/03/24 14:26:49;;;;;;;6.68;3.13;;;;;;;;;;5099674;28;20031;-53
2021/03/24 14:29:24;;;;;;;6.00;3.85;;;;;;;;;;5104452;28;20035;-53
2021/03/24 14:32:09;;;;;;;8.85;3.83;;;;;;;;;;5099575;28;20425;-53
2021/03/24 14:34:53;;;;;;;10.98;4.45;;;;;;;;;;5099859;28;20020;-53
2021/03/24 14:37:19;;;;;;;9.70;4.07;;;;;;;;;;5097326;28;20039;-53
2021/03/24 14:40:04;;;;;;;11.13;4.95;;;;;;;;;;5100370;28;20027;-54
2021/03/24 14:42:35;;;;;;;9.88;3.47;;;;;;;;;;5107607;28;20031;-54
2021/03/24 14:45:22;;;;;;;7.03;2.45;;;;;;;;;;5070129;28;20365;-54
2021/03/24 14:48:00;;;;;;;9.02;2.85;;;;;;;;;;5068872;28;20033;-54
2021/03/24 14:50:29;;;;;;;7.78;2.92;;;;;;;;;;5069804;28;20331;-53
2021/03/24 14:52:55;;;;;;;3.03;2.13;;;;;;;;;;5069510;28;20029;-53
2021/03/24 14:55:35;;;;;;;8.43;3.75;;;;;;;;;;5065770;28;20131;-53
2021/03/24 14:58:20;;;;;;;3.05;0.85;;;;;;;;;;5069440;28;20035;-54
2021/03/24 15:00:46;;;;;;;9.38;3.33;;;;;;;;;;5069787;28;20029;-54
2021/03/24 15:03:18;;;;;;;9.52;4.45;;;;;;;;;;5069484;28;20044;-53
2021/03/24 15:05:44;;;;;;;2.78;1.27;;;;;;;;;;5067933;28;20084;-53